Time;durP1;ratioP1;P1;durP2;ratioP2;P2;SDS_P1;SDS_P2;PMS_P1;PMS_P2;Temp;Humidity;BMP_temperature;BMP_pressure;BME280_temperature;BME280_humidity;BME280_pressure;Samples;Min_cycle;Max_cycle;Signal;HPM_P1;HPM_P2
2021/12/17 00:01:16;;;;;;;36.13;15.57;;;8.20;99.90;;;;;;5019494;28;20054;-68
2021/12/17 00:03:50;;;;;;;37.08;13.98;;;8.20;99.90;;;;;;5015137;28;20104;-68
2021/12/17 00:08:54;;;;;;;37.20;14.90;;;8.20;99.90;;;;;;5035102;28;20148;-68
2021/12/17 00:11:22;;;;;;;34.45;13.05;;;8.20;99.90;;;;;;5034914;28;20462;-67
2021/12/17 00:13:49;;;;;;;31.05;11.98;;;8.20;99.90;;;;;;5034716;28;20053;-70
2021/12/17 00:16:20;;;;;;;30.00;12.95;;;8.20;99.90;;;;;;5017444;28;20050;-69
2021/12/17 00:19:06;;;;;;;30.75;13.30;;;8.20;99.90;;;;;;5015277;28;20085;-70
2021/12/17 00:48:49;;;;;;;33.72;13.65;;;8.10;99.90;;;;;;5031787;28;20401;-69
2021/12/17 00:53:57;;;;;;;31.23;13.60;;;8.10;99.90;;;;;;5052450;28;20049;-70
2021/12/17 00:56:24;;;;;;;37.97;13.27;;;8.10;99.90;;;;;;5034503;28;20044;-69
2021/12/17 00:58:49;;;;;;;38.75;12.90;;;8.10;99.90;;;;;;5051958;28;20560;-72
2021/12/17 01:01:17;;;;;;;32.58;13.15;;;8.10;99.90;;;;;;5033728;28;20125;-71
2021/12/17 01:03:43;;;;;;;36.83;12.77;;;8.10;99.90;;;;;;5031104;28;20080;-69
2021/12/17 01:06:09;;;;;;;32.85;12.70;;;8.10;99.90;;;;;;5036683;28;20060;-68
2021/12/17 01:08:35;;;;;;;35.50;13.15;;;8.10;99.90;;;;;;5038507;28;20071;-68
2021/12/17 01:11:02;;;;;;;33.00;12.60;;;8.10;99.90;;;;;;5037736;28;20057;-70
2021/12/17 01:13:29;;;;;;;32.90;13.35;;;8.10;99.90;;;;;;5037770;28;20128;-69
2021/12/17 01:15:56;;;;;;;42.65;14.13;;;8.10;99.90;;;;;;5037665;28;20385;-70
2021/12/17 01:18:23;;;;;;;38.15;13.35;;;8.10;99.90;;;;;;5038167;28;20052;-67
2021/12/17 01:42:56;;;;;;;35.30;13.70;;;8.10;99.90;;;;;;5033607;28;20386;-70
2021/12/17 01:45:27;;;;;;;38.67;14.75;;;8.10;99.90;;;;;;5017506;28;20049;-70
2021/12/17 01:47:53;;;;;;;33.20;13.45;;;8.10;99.90;;;;;;5016978;28;20056;-70
2021/12/17 01:56:03;;;;;;;40.58;14.20;;;8.20;99.90;;;;;;5037027;28;20473;-70
2021/12/17 02:01:14;;;;;;;40.30;14.65;;;8.10;99.90;;;;;;5034614;28;20097;-68
2021/12/17 02:03:40;;;;;;;39.35;13.70;;;8.10;99.90;;;;;;5035242;28;20057;-70
2021/12/17 02:06:06;;;;;;;42.50;15.52;;;8.20;99.90;;;;;;5017956;28;20168;-68
2021/12/17 02:08:32;;;;;;;39.13;14.48;;;8.20;99.90;;;;;;5030183;28;20048;-69
2021/12/17 02:11:39;;;;;;;39.58;14.68;;;8.20;99.90;;;;;;5036375;28;20053;-70
2021/12/17 02:22:31;;;;;;;37.88;13.95;;;8.20;99.90;;;;;;5035586;28;20088;-71
2021/12/17 02:32:48;;;;;;;40.85;14.32;;;8.20;99.90;;;;;;5036110;28;20053;-70
2021/12/17 02:37:46;;;;;;;46.35;15.25;;;8.20;99.90;;;;;;5036179;28;20107;-70
2021/12/17 02:45:33;;;;;;;31.25;13.35;;;8.20;99.90;;;;;;5036472;28;20053;-69
2021/12/17 02:48:08;;;;;;;35.88;13.68;;;8.20;99.90;;;;;;5019341;28;20140;-70
2021/12/17 02:50:56;;;;;;;33.88;13.95;;;8.20;99.90;;;;;;5036401;28;20060;-71
2021/12/17 02:53:23;;;;;;;42.58;13.75;;;8.20;99.90;;;;;;5035871;28;20416;-69
2021/12/17 02:56:04;;;;;;;39.03;14.05;;;8.20;99.90;;;;;;5033519;28;20481;-70
2021/12/17 02:58:33;;;;;;;32.58;13.43;;;8.20;99.90;;;;;;5035876;28;20507;-69
2021/12/17 03:01:00;;;;;;;36.22;13.75;;;8.20;99.90;;;;;;5035531;28;20049;-68
2021/12/17 03:03:30;;;;;;;36.97;13.50;;;8.20;99.90;;;;;;5035804;28;20053;-69
2021/12/17 03:05:57;;;;;;;35.50;13.48;;;8.20;99.90;;;;;;5036099;28;20069;-69
2021/12/17 03:08:23;;;;;;;36.78;14.35;;;8.20;99.90;;;;;;5035945;28;20507;-69
2021/12/17 03:10:51;;;;;;;36.25;13.73;;;8.20;99.90;;;;;;5052328;28;20052;-69
2021/12/17 03:13:19;;;;;;;35.92;12.98;;;8.20;99.90;;;;;;5035989;28;20049;-70
2021/12/17 03:23:42;;;;;;;29.73;12.65;;;8.20;99.90;;;;;;5015927;28;20079;-71
2021/12/17 03:26:18;;;;;;;33.92;13.15;;;8.20;99.90;;;;;;5016108;28;20045;-69
2021/12/17 03:28:46;;;;;;;28.33;11.25;;;8.20;99.90;;;;;;5033033;28;20493;-71
2021/12/17 03:31:14;;;;;;;30.45;11.93;;;8.20;99.90;;;;;;5031736;28;20152;-69
2021/12/17 03:33:43;;;;;;;30.40;11.43;;;8.20;99.90;;;;;;5034497;28;20044;-69
2021/12/17 03:36:14;;;;;;;32.40;11.90;;;8.20;99.90;;;;;;5053510;28;20091;-69
2021/12/17 03:38:41;;;;;;;31.03;11.50;;;8.20;99.90;;;;;;5035109;28;20631;-69
2021/12/17 03:41:13;;;;;;;30.50;11.65;;;8.20;99.90;;;;;;5035536;28;20365;-69
2021/12/17 03:43:39;;;;;;;29.83;11.60;;;8.20;99.90;;;;;;5034670;28;20059;-68
2021/12/17 03:46:05;;;;;;;29.58;12.15;;;8.20;99.90;;;;;;5034465;28;20132;-70
2021/12/17 03:48:32;;;;;;;29.92;12.38;;;8.20;99.90;;;;;;5052913;28;20049;-69
2021/12/17 03:50:57;;;;;;;26.88;11.63;;;8.20;99.90;;;;;;5034499;28;20053;-70
2021/12/17 03:53:23;;;;;;;26.23;11.30;;;8.20;99.90;;;;;;5035538;28;20076;-69
2021/12/17 03:55:49;;;;;;;28.88;12.63;;;8.20;99.90;;;;;;5034987;28;20061;-68
2021/12/17 03:58:17;;;;;;;32.20;11.98;;;8.20;99.90;;;;;;5033985;28;20053;-70
2021/12/17 04:00:42;;;;;;;30.25;12.20;;;8.20;99.90;;;;;;5052915;28;20075;-69
2021/12/17 04:03:08;;;;;;;28.60;11.68;;;8.20;99.90;;;;;;5035122;28;20481;-70
2021/12/17 04:05:34;;;;;;;27.67;11.65;;;8.20;99.90;;;;;;5034935;28;20125;-69
2021/12/17 04:07:59;;;;;;;28.45;11.35;;;8.20;99.90;;;;;;5018534;28;20049;-71
2021/12/17 04:10:28;;;;;;;23.85;10.95;;;8.20;99.90;;;;;;5034686;28;20064;-70
2021/12/17 04:13:01;;;;;;;24.42;10.38;;;8.20;99.90;;;;;;5034666;28;20083;-68
2021/12/17 04:15:36;;;;;;;23.05;10.55;;;8.20;99.90;;;;;;5052553;28;20053;-69
2021/12/17 04:18:07;;;;;;;29.50;11.88;;;8.20;99.90;;;;;;5034090;28;20045;-68
2021/12/17 04:20:33;;;;;;;26.73;11.05;;;8.20;99.90;;;;;;5051998;28;20488;-71
2021/12/17 04:22:59;;;;;;;23.15;10.20;;;8.20;99.90;;;;;;5034579;28;20135;-69
2021/12/17 04:25:25;;;;;;;26.48;11.77;;;8.20;99.90;;;;;;5035128;28;20133;-68
2021/12/17 04:27:51;;;;;;;24.27;9.88;;;8.20;99.90;;;;;;5052625;28;20052;-70
2021/12/17 04:30:17;;;;;;;25.80;11.40;;;8.20;99.90;;;;;;5034704;28;20053;-70
2021/12/17 04:32:42;;;;;;;25.27;10.48;;;8.20;99.90;;;;;;5033970;28;20048;-70
2021/12/17 04:35:08;;;;;;;31.23;12.05;;;8.10;99.90;;;;;;5030752;28;20085;-68
2021/12/17 04:37:34;;;;;;;26.17;11.23;;;8.10;99.90;;;;;;5052143;28;20161;-69
2021/12/17 04:40:00;;;;;;;27.40;11.38;;;8.20;99.90;;;;;;5037797;28;20175;-68
2021/12/17 04:44:55;;;;;;;22.17;9.93;;;8.20;99.90;;;;;;5037897;28;20128;-70
2021/12/17 04:58:01;;;;;;;22.90;10.10;;;8.10;99.90;;;;;;5018062;28;20153;-69
2021/12/17 05:00:30;;;;;;;28.38;11.75;;;8.10;99.90;;;;;;5018560;28;20489;-70
2021/12/17 05:02:57;;;;;;;23.55;9.90;;;8.10;99.90;;;;;;5035883;28;20103;-70
2021/12/17 05:05:28;;;;;;;25.98;9.80;;;8.10;99.90;;;;;;5013380;28;20472;-70
2021/12/17 05:08:00;;;;;;;22.17;9.13;;;8.10;99.90;;;;;;5037827;28;20080;-70
2021/12/17 05:18:32;;;;;;;23.70;10.90;;;8.10;99.90;;;;;;5037571;28;20127;-69
2021/12/17 05:21:07;;;;;;;27.33;11.27;;;8.00;99.90;;;;;;5055269;28;20045;-68
2021/12/17 05:23:37;;;;;;;23.83;10.20;;;8.10;99.90;;;;;;5037818;28;20053;-68
2021/12/17 05:26:09;;;;;;;23.67;10.60;;;8.10;99.90;;;;;;5038160;28;20081;-68
2021/12/17 05:28:35;;;;;;;23.15;10.13;;;8.00;99.90;;;;;;5055591;28;20432;-70
2021/12/17 05:31:01;;;;;;;22.77;9.85;;;8.00;99.90;;;;;;5037230;28;20064;-70
2021/12/17 05:33:27;;;;;;;23.08;10.18;;;8.00;99.90;;;;;;5036518;28;20049;-68
2021/12/17 05:35:54;;;;;;;25.55;10.38;;;8.00;99.90;;;;;;5037127;28;20048;-69
2021/12/17 05:38:21;;;;;;;20.98;9.52;;;8.00;99.90;;;;;;5020562;28;20065;-69
2021/12/17 05:40:46;;;;;;;24.38;11.00;;;8.00;99.90;;;;;;5035458;28;20106;-70
2021/12/17 05:43:15;;;;;;;23.90;10.27;;;8.00;99.90;;;;;;5035387;28;20073;-69
2021/12/17 05:48:22;;;;;;;29.35;12.15;;;8.00;99.90;;;;;;5048579;28;20064;-69
2021/12/17 05:50:50;;;;;;;33.00;13.02;;;8.00;99.90;;;;;;5036168;28;20396;-68
2021/12/17 05:53:16;;;;;;;26.88;11.88;;;8.00;99.90;;;;;;5037094;28;20095;-68
2021/12/17 05:55:42;;;;;;;25.27;11.45;;;8.00;99.90;;;;;;5037358;28;20127;-68
2021/12/17 05:58:09;;;;;;;32.10;12.60;;;8.00;99.90;;;;;;5036691;28;20127;-68
2021/12/17 06:00:36;;;;;;;24.98;11.00;;;8.00;99.90;;;;;;5036233;28;20084;-68
2021/12/17 06:03:02;;;;;;;29.33;11.02;;;8.10;99.90;;;;;;5036898;28;20139;-68
2021/12/17 06:05:29;;;;;;;28.58;12.23;;;8.10;99.90;;;;;;5055143;28;20492;-69
2021/12/17 06:07:55;;;;;;;31.50;11.57;;;8.10;99.90;;;;;;5034729;28;20080;-68
2021/12/17 06:10:22;;;;;;;29.17;11.10;;;8.00;99.90;;;;;;5037641;28;20049;-68
2021/12/17 06:12:47;;;;;;;30.80;11.70;;;8.10;99.90;;;;;;5036877;28;20084;-70
2021/12/17 06:15:16;;;;;;;23.77;10.85;;;8.00;99.90;;;;;;5037127;28;20081;-69
2021/12/17 06:17:43;;;;;;;27.42;10.90;;;8.00;99.90;;;;;;5019680;28;20060;-68
2021/12/17 06:20:11;;;;;;;24.15;10.00;;;8.00;99.90;;;;;;5036798;28;20469;-71
2021/12/17 06:22:37;;;;;;;37.70;12.27;;;7.90;99.90;;;;;;5053170;28;20323;-69
2021/12/17 06:25:10;;;;;;;35.22;11.95;;;7.90;99.90;;;;;;5037210;28;20071;-69
2021/12/17 06:27:36;;;;;;;31.00;12.05;;;8.00;99.90;;;;;;5020175;28;20051;-69
2021/12/17 06:30:06;;;;;;;29.00;11.55;;;7.90;99.90;;;;;;5037173;28;20129;-70
2021/12/17 06:32:32;;;;;;;33.10;11.90;;;7.90;99.90;;;;;;5053095;28;20068;-68
2021/12/17 06:34:57;;;;;;;26.45;11.95;;;7.90;99.90;;;;;;5036394;28;20053;-68
2021/12/17 06:37:25;;;;;;;41.47;13.43;;;7.90;99.90;;;;;;5035823;28;20462;-68
2021/12/17 06:39:51;;;;;;;43.13;14.27;;;7.90;99.90;;;;;;5053840;28;20124;-69
2021/12/17 06:42:18;;;;;;;40.28;13.05;;;7.90;99.90;;;;;;5033575;28;20511;-70
2021/12/17 06:44:46;;;;;;;34.42;13.15;;;7.90;99.90;;;;;;5032110;28;20057;-69
2021/12/17 06:47:31;;;;;;;41.15;13.57;;;7.90;99.90;;;;;;5057618;28;20182;-69
2021/12/17 06:56:02;;;;;;;44.25;13.30;;;7.90;99.90;;;;;;5035707;28;20045;-70
2021/12/17 07:01:17;;;;;;;51.92;14.70;;;7.90;99.90;;;;;;5035109;28;20489;-69
2021/12/17 07:17:14;;;;;;;33.03;12.00;;;7.70;99.90;;;;;;5029648;28;20069;-68
2021/12/17 07:40:53;;;;;;;40.72;13.48;;;7.80;99.90;;;;;;5035314;28;20059;-68
2021/12/17 07:43:55;;;;;;;35.13;13.20;;;7.80;99.90;;;;;;5034126;28;20053;-69
2021/12/17 07:46:12;;;;;;;26.02;11.00;;;7.80;99.90;;;;;;5032072;28;20048;-70
2021/12/17 07:48:39;;;;;;;46.90;13.20;;;7.90;99.90;;;;;;5034607;28;20409;-68
2021/12/17 07:51:08;;;;;;;35.83;13.02;;;7.90;99.90;;;;;;5034411;28;20049;-69
2021/12/17 07:53:34;;;;;;;27.38;11.38;;;7.90;99.90;;;;;;5031569;28;20045;-70
2021/12/17 07:56:02;;;;;;;35.70;12.95;;;7.90;99.90;;;;;;5018316;28;20044;-68
2021/12/17 07:58:29;;;;;;;36.28;12.88;;;7.90;99.90;;;;;;5033500;28;20045;-68
2021/12/17 08:00:56;;;;;;;36.95;12.25;;;7.90;99.90;;;;;;5051456;28;20053;-70
2021/12/17 08:03:22;;;;;;;37.88;13.70;;;7.90;99.90;;;;;;5033696;28;20051;-70
2021/12/17 08:05:47;;;;;;;34.35;12.73;;;7.90;99.90;;;;;;5034670;28;20369;-69
2021/12/17 08:08:13;;;;;;;35.65;12.52;;;7.90;99.90;;;;;;5033889;28;20477;-69
2021/12/17 08:10:39;;;;;;;29.00;12.15;;;7.90;99.90;;;;;;5034419;28;20124;-71
2021/12/17 08:13:07;;;;;;;28.13;11.80;;;7.90;99.90;;;;;;5051996;28;20053;-69
2021/12/17 08:15:39;;;;;;;36.65;13.50;;;7.90;99.90;;;;;;5034563;28;20109;-68
2021/12/17 08:26:11;;;;;;;37.47;14.20;;;8.00;99.90;;;;;;5032588;28;20390;-68
2021/12/17 08:31:18;;;;;;;31.77;15.40;;;8.00;99.90;;;;;;5017299;28;20125;-69
2021/12/17 08:33:44;;;;;;;31.10;14.48;;;8.00;99.90;;;;;;5034864;28;20060;-68
2021/12/17 08:36:10;;;;;;;30.20;14.00;;;8.00;99.90;;;;;;5034503;28;20052;-71
2021/12/17 08:38:35;;;;;;;24.15;12.00;;;8.10;99.90;;;;;;5034361;28;20056;-68
2021/12/17 08:41:01;;;;;;;25.33;11.65;;;8.10;99.90;;;;;;5034798;28;20060;-69
2021/12/17 08:43:27;;;;;;;32.28;12.77;;;8.10;99.90;;;;;;5035128;28;20052;-68
2021/12/17 08:45:53;;;;;;;27.85;13.32;;;8.10;99.90;;;;;;5051780;28;21005;-68
2021/12/17 08:48:19;;;;;;;31.80;14.73;;;8.10;99.90;;;;;;5034496;28;20049;-70
2021/12/17 08:50:44;;;;;;;29.30;12.25;;;8.10;99.90;;;;;;5034477;28;20056;-69
2021/12/17 08:53:10;;;;;;;20.55;11.18;;;8.10;99.90;;;;;;5034458;28;20057;-68
2021/12/17 08:55:36;;;;;;;25.95;12.15;;;8.10;99.90;;;;;;5034457;28;20084;-69
2021/12/17 08:58:02;;;;;;;21.88;11.13;;;8.10;99.90;;;;;;5034729;28;20135;-68
2021/12/17 09:00:27;;;;;;;24.63;11.48;;;8.20;99.90;;;;;;5034103;28;20056;-68
2021/12/17 09:02:59;;;;;;;22.50;10.07;;;8.20;99.90;;;;;;5051807;28;20049;-68
2021/12/17 09:05:25;;;;;;;20.50;10.02;;;8.20;99.90;;;;;;5034829;28;20087;-69
2021/12/17 09:07:50;;;;;;;21.67;11.35;;;8.20;99.90;;;;;;5048582;28;20080;-69
2021/12/17 09:10:21;;;;;;;19.13;10.13;;;8.20;99.90;;;;;;5031278;28;20049;-68
2021/12/17 09:12:46;;;;;;;18.58;10.57;;;8.20;99.90;;;;;;5032038;28;20090;-69
2021/12/17 09:15:12;;;;;;;17.83;8.80;;;8.30;99.90;;;;;;5031427;28;20089;-68
2021/12/17 09:17:38;;;;;;;20.90;10.07;;;8.30;99.90;;;;;;5030604;28;20398;-68
2021/12/17 09:20:06;;;;;;;18.58;9.70;;;8.30;99.90;;;;;;5032420;28;20057;-69
2021/12/17 09:22:34;;;;;;;18.23;9.63;;;8.30;99.90;;;;;;5031698;28;20099;-69
2021/12/17 09:24:59;;;;;;;20.58;9.35;;;8.40;99.90;;;;;;5034805;28;20088;-68
2021/12/17 09:27:25;;;;;;;16.40;9.68;;;8.40;99.90;;;;;;5035767;28;20089;-68
2021/12/17 09:29:51;;;;;;;19.60;9.45;;;8.40;99.90;;;;;;5034559;28;20559;-70
2021/12/17 09:32:16;;;;;;;16.70;8.80;;;8.40;99.90;;;;;;5035429;28;20060;-69
2021/12/17 09:34:42;;;;;;;19.08;9.95;;;8.50;99.90;;;;;;5035597;28;20053;-70
2021/12/17 09:37:07;;;;;;;15.25;9.25;;;8.50;99.90;;;;;;5036702;28;20048;-70
2021/12/17 09:39:33;;;;;;;13.00;8.48;;;8.50;99.90;;;;;;5037156;28;20048;-69
2021/12/17 09:41:59;;;;;;;15.50;8.57;;;8.50;99.90;;;;;;5037654;28;20087;-68
2021/12/17 09:44:24;;;;;;;17.92;9.70;;;8.50;99.90;;;;;;5037297;28;20136;-69
2021/12/17 09:46:50;;;;;;;17.02;8.73;;;8.50;99.90;;;;;;5037093;28;20045;-69
2021/12/17 09:49:17;;;;;;;15.63;9.00;;;8.50;99.90;;;;;;5037793;28;20430;-69
2021/12/17 09:51:43;;;;;;;13.50;8.73;;;8.60;99.90;;;;;;5037057;28;20128;-68
2021/12/17 09:54:10;;;;;;;17.00;9.50;;;8.60;99.90;;;;;;5036792;28;20045;-69
2021/12/17 09:56:36;;;;;;;14.30;9.10;;;8.60;99.90;;;;;;5054986;28;20124;-68
2021/12/17 09:59:02;;;;;;;15.25;9.77;;;8.60;99.90;;;;;;5037390;28;20099;-69
2021/12/17 10:01:28;;;;;;;16.42;9.32;;;8.60;99.90;;;;;;5023417;28;20154;-69
2021/12/17 10:04:17;;;;;;;15.55;8.85;;;8.70;99.90;;;;;;5042272;28;20477;-68
2021/12/17 10:06:45;;;;;;;14.73;9.23;;;8.70;99.90;;;;;;5021134;28;20044;-70
2021/12/17 10:09:11;;;;;;;17.42;8.93;;;8.70;99.90;;;;;;5037155;28;20057;-66
2021/12/17 10:11:36;;;;;;;15.65;9.80;;;8.70;99.90;;;;;;5037058;28;20052;-66
2021/12/17 10:14:16;;;;;;;15.80;9.07;;;8.70;99.90;;;;;;5036954;28;20061;-68
2021/12/17 10:16:42;;;;;;;18.23;8.60;;;8.80;99.90;;;;;;5035629;28;20393;-69
2021/12/17 10:19:08;;;;;;;15.63;9.43;;;8.80;99.90;;;;;;5052003;28;20106;-67
2021/12/17 10:21:38;;;;;;;15.85;8.95;;;8.80;99.90;;;;;;5040981;28;20107;-66
2021/12/17 10:24:04;;;;;;;13.60;8.75;;;8.80;99.90;;;;;;5055498;28;20053;-68
2021/12/17 10:26:40;;;;;;;14.00;8.88;;;8.80;99.90;;;;;;5020336;28;20111;-68
2021/12/17 10:29:06;;;;;;;16.52;9.27;;;8.90;99.90;;;;;;5054809;28;20080;-69
2021/12/17 10:31:36;;;;;;;14.88;9.45;;;8.90;99.90;;;;;;5054135;28;20522;-68
2021/12/17 10:34:04;;;;;;;15.32;9.60;;;8.90;99.90;;;;;;5036598;28;20373;-67
2021/12/17 10:36:35;;;;;;;15.30;9.18;;;8.90;99.90;;;;;;5035703;28;20049;-68
2021/12/17 10:39:11;;;;;;;15.00;9.43;;;8.90;99.90;;;;;;5036135;28;20390;-67
2021/12/17 10:41:48;;;;;;;16.92;9.43;;;8.90;99.90;;;;;;5036415;28;20056;-69
2021/12/17 10:44:14;;;;;;;13.73;8.65;;;9.60;99.90;;;;;;5036713;28;20107;-68
2021/12/17 10:46:56;;;;;;;13.63;8.55;;;8.90;99.90;;;;;;5035738;28;20508;-70
2021/12/17 10:49:25;;;;;;;15.65;8.93;;;9.00;99.90;;;;;;5054031;28;20056;-69
2021/12/17 10:52:08;;;;;;;15.40;8.75;;;8.90;99.90;;;;;;5052213;28;20049;-70
2021/12/17 10:54:33;;;;;;;14.15;9.05;;;9.00;99.90;;;;;;5036363;28;20453;-67
2021/12/17 10:57:00;;;;;;;14.07;8.88;;;9.00;99.90;;;;;;5053882;28;20064;-69
2021/12/17 10:59:28;;;;;;;13.23;8.85;;;9.00;99.90;;;;;;5035936;28;20092;-68
2021/12/17 11:02:01;;;;;;;16.23;9.43;;;9.00;99.90;;;;;;5053901;28;20091;-68
2021/12/17 11:04:43;;;;;;;13.73;8.52;;;9.00;99.90;;;;;;5035558;28;20048;-70
2021/12/17 11:07:16;;;;;;;15.45;9.80;;;9.10;99.90;;;;;;5019004;28;20116;-69
2021/12/17 11:09:49;;;;;;;14.18;9.13;;;9.10;99.90;;;;;;5028522;28;20052;-70
2021/12/17 11:12:17;;;;;;;13.98;9.38;;;9.10;99.90;;;;;;5049930;28;20059;-68
2021/12/17 11:14:45;;;;;;;13.73;9.00;;;9.10;99.90;;;;;;5052114;28;20064;-68
2021/12/17 11:17:12;;;;;;;13.18;8.40;;;9.20;99.90;;;;;;5035679;28;20437;-68
2021/12/17 11:19:40;;;;;;;15.10;8.57;;;9.20;99.90;;;;;;5034985;28;20148;-69
2021/12/17 11:22:05;;;;;;;13.80;8.35;;;9.20;99.90;;;;;;5019308;28;20067;-68
2021/12/17 11:24:35;;;;;;;13.70;8.50;;;9.20;99.90;;;;;;5035905;28;20053;-67
2021/12/17 11:27:03;;;;;;;14.50;8.98;;;9.30;99.90;;;;;;5035560;28;20048;-69
2021/12/17 11:29:29;;;;;;;14.18;9.00;;;9.30;99.90;;;;;;5035665;28;20065;-68
2021/12/17 11:31:55;;;;;;;15.50;8.23;;;9.30;99.90;;;;;;5051433;28;20063;-67
2021/12/17 11:34:21;;;;;;;13.48;8.43;;;9.40;99.90;;;;;;5037041;28;20128;-68
2021/12/17 11:36:47;;;;;;;11.85;7.90;;;9.40;99.90;;;;;;5034335;28;20101;-68
2021/12/17 11:39:26;;;;;;;12.52;8.27;;;9.50;99.90;;;;;;5031639;28;20119;-69
2021/12/17 11:41:58;;;;;;;13.82;8.90;;;9.50;99.90;;;;;;5035279;28;20478;-71
2021/12/17 11:44:29;;;;;;;13.82;8.52;;;9.50;99.90;;;;;;5034890;28;20107;-67
2021/12/17 11:47:04;;;;;;;11.80;8.15;;;9.50;99.90;;;;;;5034761;28;20489;-69
2021/12/17 11:49:36;;;;;;;12.60;8.55;;;9.60;99.90;;;;;;5029629;28;20482;-68
2021/12/17 11:52:03;;;;;;;13.45;8.48;;;9.60;99.90;;;;;;5047834;28;20045;-69
2021/12/17 11:54:34;;;;;;;13.75;8.07;;;9.60;99.90;;;;;;5034611;28;20390;-69
2021/12/17 11:57:13;;;;;;;9.73;6.75;;;9.60;99.90;;;;;;5035164;28;20057;-69
2021/12/17 11:59:44;;;;;;;12.85;7.38;;;9.70;99.90;;;;;;5018243;28;20509;-71
2021/12/17 12:02:22;;;;;;;13.95;7.93;;;9.60;99.90;;;;;;5032344;28;20041;-71
2021/12/17 12:04:59;;;;;;;10.43;7.25;;;9.50;99.90;;;;;;5031887;28;20041;-70
2021/12/17 12:07:24;;;;;;;11.52;7.20;;;9.50;99.90;;;;;;5032443;28;20040;-67
2021/12/17 12:10:05;;;;;;;11.73;7.85;;;9.50;99.90;;;;;;5034437;28;20104;-68
2021/12/17 12:12:36;;;;;;;11.77;8.05;;;9.50;99.90;;;;;;5030452;28;20092;-69
2021/12/17 12:15:27;;;;;;;12.98;7.53;;;9.60;99.90;;;;;;5033331;28;20060;-70
2021/12/17 12:18:03;;;;;;;10.98;7.05;;;9.50;99.90;;;;;;5045348;28;20518;-69
2021/12/17 12:20:48;;;;;;;13.25;7.95;;;;;;;;;;5031829;28;20056;-69
2021/12/17 12:23:19;;;;;;;12.15;7.75;;;9.50;99.90;;;;;;5032132;28;20119;-71
2021/12/17 12:25:47;;;;;;;12.77;7.50;;;9.50;99.90;;;;;;5033992;28;20095;-68
2021/12/17 12:28:16;;;;;;;13.57;8.32;;;9.60;99.90;;;;;;5034480;28;20053;-68
2021/12/17 12:30:44;;;;;;;12.05;8.25;;;9.60;99.90;;;;;;5034168;28;20044;-71
2021/12/17 12:33:12;;;;;;;13.05;8.85;;;9.60;99.90;;;;;;5031436;28;20045;-68
2021/12/17 12:35:38;;;;;;;10.77;7.65;;;9.60;99.90;;;;;;5034536;28;20063;-68
2021/12/17 12:38:15;;;;;;;12.00;8.30;;;9.60;99.90;;;;;;5024160;28;20053;-69
2021/12/17 12:40:45;;;;;;;11.70;8.15;;;9.60;99.90;;;;;;5014783;28;20393;-69
2021/12/17 12:43:30;;;;;;;12.00;7.90;;;9.60;99.90;;;;;;5004735;28;20041;-69
2021/12/17 12:45:56;;;;;;;15.23;8.77;;;9.70;99.90;;;;;;5003766;28;20053;-69
2021/12/17 12:48:48;;;;;;;13.52;8.45;;;9.60;99.90;;;;;;5011454;28;20056;-69
2021/12/17 12:51:23;;;;;;;11.37;7.73;;;9.60;99.90;;;;;;4994542;28;20081;-69
2021/12/17 12:54:06;;;;;;;13.20;8.43;;;9.60;99.90;;;;;;5014865;28;20465;-71
2021/12/17 12:56:32;;;;;;;;;;;9.60;99.90;;;;;;5013646;28;20103;-69
2021/12/17 12:59:01;;;;;;;10.25;7.15;;;9.60;99.90;;;;;;4979449;28;19921;-70
2021/12/17 13:01:27;;;;;;;11.30;7.50;;;9.60;99.90;;;;;;4982507;28;20061;-70
2021/12/17 13:03:52;;;;;;;18.42;8.00;;;9.60;99.90;;;;;;5016946;28;20053;-71
2021/12/17 13:06:20;;;;;;;9.93;6.47;;;9.50;99.90;;;;;;4999081;28;20042;-71
2021/12/17 13:08:53;;;;;;;10.25;7.07;;;9.50;99.90;;;;;;5008403;28;20073;-68
2021/12/17 13:11:21;;;;;;;10.20;6.50;;;9.50;99.90;;;;;;5015392;28;20121;-69
2021/12/17 13:13:55;;;;;;;10.30;6.53;;;9.50;99.90;;;;;;5004112;28;20069;-70
2021/12/17 13:16:43;;;;;;;10.75;7.18;;;9.50;99.90;;;;;;5007172;28;20065;-70
2021/12/17 13:22:02;;;;;;;11.02;5.93;;;9.60;99.90;;;;;;5000003;28;20058;-70
2021/12/17 13:24:31;;;;;;;7.55;5.20;;;9.60;99.90;;;;;;5036323;28;20064;-68
2021/12/17 13:27:12;;;;;;;8.82;4.85;;;9.70;99.90;;;;;;5017917;28;20445;-70
2021/12/17 13:29:40;;;;;;;5.70;4.10;;;9.70;99.90;;;;;;5035934;28;20107;-70
2021/12/17 13:32:09;;;;;;;4.18;3.10;;;9.70;99.90;;;;;;5001649;28;20045;-69
2021/12/17 13:34:40;;;;;;;5.03;2.70;;;9.70;99.90;;;;;;5017792;28;20270;-69
2021/12/17 13:37:16;;;;;;;3.22;2.90;;;9.70;99.90;;;;;;5019301;28;20056;-70
2021/12/17 13:40:00;;;;;;;2.88;2.38;;;9.70;99.90;;;;;;5037016;28;20049;-68
2021/12/17 13:42:28;;;;;;;3.42;2.47;;;9.70;99.90;;;;;;5037522;28;20123;-69
2021/12/17 13:45:09;;;;;;;2.75;2.45;;;9.70;99.90;;;;;;5037419;28;20041;-71
2021/12/17 13:47:50;;;;;;;2.25;1.98;;;10.30;99.90;;;;;;5037359;28;20049;-68
2021/12/17 13:50:40;;;;;;;4.03;3.00;;;9.60;99.90;;;;;;5037336;28;20052;-71
2021/12/17 13:53:17;;;;;;;2.97;2.65;;;9.70;99.90;;;;;;5012227;28;20053;-71
2021/12/17 13:55:48;;;;;;;3.60;3.10;;;9.70;99.90;;;;;;5025648;28;20127;-69
2021/12/17 13:58:22;;;;;;;4.05;2.90;;;9.70;99.90;;;;;;5009788;28;20084;-70
2021/12/17 14:00:57;;;;;;;4.20;2.92;;;9.70;99.90;;;;;;5002855;28;20485;-70
2021/12/17 14:03:35;;;;;;;3.55;2.88;;;9.90;99.90;;;;;;5017148;28;20062;-68
2021/12/17 14:06:18;;;;;;;2.97;2.50;;;9.70;99.90;;;;;;5027413;28;20064;-68
2021/12/17 14:08:44;;;;;;;3.08;2.38;;;9.60;99.90;;;;;;5011946;28;20076;-71
2021/12/17 14:11:33;;;;;;;4.72;2.38;;;9.60;99.90;;;;;;5035900;28;20081;-69
2021/12/17 14:14:00;;;;;;;4.82;2.22;;;9.60;99.90;;;;;;5020532;28;20053;-68
2021/12/17 14:16:31;;;;;;;2.63;1.92;;;9.60;99.90;;;;;;5011268;28;20100;-69
2021/12/17 14:18:58;;;;;;;2.50;1.60;;;9.50;99.90;;;;;;5000482;28;20053;-69
2021/12/17 14:21:30;;;;;;;2.10;1.60;;;9.50;99.90;;;;;;5016677;28;20060;-72
2021/12/17 14:23:57;;;;;;;1.70;1.50;;;9.50;99.90;;;;;;5033592;28;20485;-71
2021/12/17 14:26:30;;;;;;;1.73;1.30;;;9.50;99.90;;;;;;5016708;28;20060;-71
2021/12/17 14:29:08;;;;;;;3.58;2.28;;;9.50;99.90;;;;;;5030713;28;20160;-70
2021/12/17 14:31:36;;;;;;;2.28;1.95;;;9.50;99.90;;;;;;5035798;28;20507;-70
2021/12/17 14:34:02;;;;;;;2.67;2.10;;;9.40;99.90;;;;;;5036746;28;20049;-69
2021/12/17 14:36:38;;;;;;;2.50;2.30;;;9.40;99.90;;;;;;5054152;28;20578;-71
2021/12/17 14:39:07;;;;;;;3.10;2.80;;;9.40;99.90;;;;;;5036198;28;20535;-70
2021/12/17 14:41:44;;;;;;;3.92;2.83;;;9.40;99.90;;;;;;5035665;28;20049;-67
2021/12/17 14:47:00;;;;;;;4.13;2.63;;;9.30;99.90;;;;;;5025879;28;20059;-71
2021/12/17 15:05:45;;;;;;;7.28;4.07;;;9.30;99.90;;;;;;5035190;28;20045;-70
2021/12/17 15:08:11;;;;;;;5.90;4.35;;;9.30;99.90;;;;;;5019613;28;20048;-68
2021/12/17 15:10:37;;;;;;;6.28;4.30;;;9.30;99.90;;;;;;5032067;28;20095;-71
2021/12/17 15:13:03;;;;;;;5.82;4.15;;;9.30;99.90;;;;;;5036060;28;20053;-70
2021/12/17 15:15:35;;;;;;;6.65;4.88;;;9.30;99.90;;;;;;5035940;28;20132;-70
2021/12/17 15:18:02;;;;;;;7.40;4.50;;;9.20;99.90;;;;;;5035305;28;20471;-70
2021/12/17 15:20:31;;;;;;;7.20;5.65;;;9.20;99.90;;;;;;5034563;28;20056;-70
2021/12/17 15:22:58;;;;;;;7.32;5.05;;;9.20;99.90;;;;;;5053113;28;20127;-70
2021/12/17 15:25:24;;;;;;;8.32;5.75;;;9.20;99.90;;;;;;5035478;28;20076;-69
2021/12/17 15:27:51;;;;;;;6.72;5.18;;;9.20;99.90;;;;;;5026882;28;20462;-71
2021/12/17 15:30:23;;;;;;;7.25;5.32;;;9.50;99.90;;;;;;5024749;28;20057;-71
2021/12/17 15:32:50;;;;;;;7.95;5.70;;;9.20;99.90;;;;;;5022808;28;20053;-68
2021/12/17 15:35:19;;;;;;;7.93;5.72;;;9.20;99.90;;;;;;5032940;28;20053;-70
2021/12/17 15:37:44;;;;;;;7.03;5.32;;;9.20;99.90;;;;;;5035158;28;20057;-69
2021/12/17 15:40:11;;;;;;;8.65;5.82;;;9.20;99.90;;;;;;5035757;28;20057;-69
2021/12/17 15:42:37;;;;;;;8.95;5.57;;;9.30;99.90;;;;;;5035224;28;20057;-68
2021/12/17 15:45:04;;;;;;;8.10;6.47;;;9.30;99.90;;;;;;5034787;28;20127;-68
2021/12/17 15:47:30;;;;;;;7.55;6.10;;;9.30;99.90;;;;;;5020481;28;20146;-69
2021/12/17 15:49:55;;;;;;;6.65;5.90;;;9.30;99.90;;;;;;5015588;28;20049;-70
2021/12/17 15:52:21;;;;;;;7.10;5.93;;;9.30;99.90;;;;;;5033176;28;20160;-69
2021/12/17 15:54:47;;;;;;;7.20;5.40;;;;;;;;;;5015265;28;20462;-70
2021/12/17 15:57:15;;;;;;;7.03;5.60;;;9.30;99.90;;;;;;5021485;28;20120;-70
2021/12/17 15:59:41;;;;;;;7.78;6.05;;;9.30;99.90;;;;;;5017512;28;20052;-70
2021/12/17 16:02:06;;;;;;;6.97;6.25;;;9.30;99.90;;;;;;5026772;28;20042;-67
2021/12/17 16:04:37;;;;;;;5.90;5.30;;;9.30;99.90;;;;;;5027858;28;20121;-71
2021/12/17 16:07:03;;;;;;;9.40;6.15;;;9.30;99.90;;;;;;5033177;28;20365;-70
2021/12/17 16:16:52;;;;;;;8.00;6.20;;;9.30;99.90;;;;;;5020129;28;20037;-72
2021/12/17 16:16:53;;;;;;;8.95;7.47;;;9.30;99.90;;;;;;5002005;28;20068;-70